Time;durP1;ratioP1;P1;durP2;ratioP2;P2;SDS_P1;SDS_P2;PMS_P1;PMS_P2;Temp;Humidity;BMP_temperature;BMP_pressure;BME280_temperature;BME280_humidity;BME280_pressure;Samples;Min_cycle;Max_cycle;Signal;HPM_P1;HPM_P2
2021/08/25 00:00:48;;;;;;;4.88;3.17;;;;;;;12.52;70.69;101302.41;5074066;28;20055;-64
2021/08/25 00:03:15;;;;;;;5.82;3.38;;;;;;;12.42;71.07;101299.78;5074282;28;20060;-64
2021/08/25 00:05:45;;;;;;;4.85;3.05;;;;;;;12.46;71.50;101296.06;5074228;28;20075;-64
2021/08/25 00:08:12;;;;;;;6.03;3.15;;;;;;;12.48;71.15;101299.38;5076349;28;20054;-64
2021/08/25 00:10:40;;;;;;;4.40;3.20;;;;;;;12.48;70.74;101301.38;5094122;28;20055;-64
2021/08/25 00:13:07;;;;;;;6.30;3.40;;;;;;;12.44;71.24;101294.72;5094398;28;20059;-64
2021/08/25 00:15:36;;;;;;;5.65;3.78;;;;;;;12.43;70.65;101290.25;5094573;28;20389;-64
2021/08/25 00:18:04;;;;;;;4.07;3.08;;;;;;;12.41;70.79;101298.13;5094197;28;20052;-63
2021/08/25 00:20:32;;;;;;;4.65;3.28;;;;;;;12.36;71.06;101299.88;5093660;28;20048;-64
2021/08/25 00:23:01;;;;;;;4.95;3.38;;;;;;;12.31;71.21;101290.75;5093584;28;20444;-64
2021/08/25 00:25:28;;;;;;;9.35;3.38;;;;;;;12.28;71.31;101297.78;5092195;28;20067;-64
2021/08/25 00:27:56;;;;;;;6.82;3.65;;;;;;;12.30;71.07;101291.88;5093984;28;20052;-64
2021/08/25 00:30:23;;;;;;;4.93;3.55;;;;;;;12.24;71.46;101290.31;5094425;28;20052;-64
2021/08/25 00:32:51;;;;;;;6.13;4.28;;;;;;;12.28;71.23;101288.56;5094379;28;20052;-64
2021/08/25 00:35:18;;;;;;;6.53;3.88;;;;;;;12.26;71.55;101290.84;5093655;28;20088;-64
2021/08/25 00:37:46;;;;;;;4.78;4.07;;;;;;;12.26;71.25;101288.03;5093305;28;20052;-64
2021/08/25 00:40:15;;;;;;;5.10;3.70;;;;;;;12.23;71.63;101285.88;5093129;28;20048;-64
2021/08/25 00:42:42;;;;;;;7.15;4.18;;;;;;;12.18;72.01;101282.03;5093419;28;20048;-63
2021/08/25 00:45:11;;;;;;;6.93;4.47;;;;;;;12.15;71.68;101279.84;5075468;28;20052;-64
2021/08/25 00:47:39;;;;;;;5.05;3.83;;;;;;;12.13;71.62;101279.31;5073463;28;20474;-63
2021/08/25 00:50:08;;;;;;;5.53;4.00;;;;;;;12.15;71.58;101276.22;5073202;28;20532;-64
2021/08/25 00:52:37;;;;;;;12.05;5.30;;;;;;;12.12;71.61;101266.50;5077324;28;20476;-64
2021/08/25 00:55:06;;;;;;;6.75;4.82;;;;;;;12.02;72.54;101277.84;5092823;28;20120;-64
2021/08/25 00:57:36;;;;;;;5.30;4.10;;;;;;;12.08;72.32;101270.22;5093782;28;20111;-64
2021/08/25 01:00:08;;;;;;;6.18;4.30;;;;;;;12.09;72.33;101263.47;5093270;28;20048;-64
2021/08/25 01:02:41;;;;;;;6.05;4.20;;;;;;;12.05;72.19;101266.03;5093321;28;20106;-64
2021/08/25 01:05:09;;;;;;;8.85;3.90;;;;;;;12.01;71.66;101261.38;5092982;28;20048;-64
2021/08/25 01:07:38;;;;;;;5.00;4.20;;;;;;;11.97;71.85;101264.78;5093463;28;20059;-64
2021/08/25 01:10:27;;;;;;;6.37;4.03;;;;;;;11.86;71.57;101259.63;5092885;28;20052;-64
2021/08/25 01:12:56;;;;;;;6.40;3.90;;;;;;;11.86;71.92;101246.50;5093293;28;20378;-64
2021/08/25 01:15:24;;;;;;;6.43;4.13;;;;;;;11.84;72.64;101251.56;5093048;28;20053;-65
2021/08/25 01:17:53;;;;;;;5.10;4.15;;;;;;;11.87;72.36;101244.56;5093373;28;20377;-64
2021/08/25 01:20:23;;;;;;;5.93;3.97;;;;;;;11.85;71.75;101244.03;5093449;28;20048;-64
2021/08/25 01:22:53;;;;;;;5.10;4.00;;;;;;;11.82;72.00;101247.41;5092799;28;20477;-64
2021/08/25 01:25:24;;;;;;;6.30;4.60;;;;;;;11.82;72.22;101251.03;5092409;28;20048;-65
2021/08/25 01:27:55;;;;;;;4.65;3.88;;;;;;;11.82;71.99;101250.22;5092537;28;20047;-64
2021/08/25 01:30:28;;;;;;;6.10;3.75;;;;;;;11.78;71.83;101250.84;5092822;28;20056;-64
2021/08/25 01:32:55;;;;;;;6.15;4.00;;;;;;;11.71;71.61;101243.97;5092706;28;20513;-65
2021/08/25 01:35:34;;;;;;;4.90;4.10;;;;;;;11.72;71.96;101256.81;5092759;28;20062;-64
2021/08/25 01:38:03;;;;;;;6.15;4.53;;;;;;;11.71;72.09;101243.97;5092415;28;20059;-64
2021/08/25 01:40:31;;;;;;;4.70;4.20;;;;;;;11.69;72.17;101247.06;5091822;28;20791;-64
2021/08/25 01:42:59;;;;;;;8.07;4.70;;;;;;;11.70;71.68;101242.31;5092219;28;20056;-64
2021/08/25 01:45:28;;;;;;;10.00;5.88;;;;;;;11.68;71.73;101239.81;5092592;28;20134;-65
2021/08/25 01:47:55;;;;;;;8.13;3.90;;;;;;;11.58;72.02;101243.59;5092740;28;20048;-65
2021/08/25 01:50:22;;;;;;;5.93;4.07;;;;;;;11.52;71.94;101241.19;5093368;28;20810;-64
2021/08/25 01:52:50;;;;;;;5.65;4.03;;;;;;;11.57;71.57;101243.91;5092503;28;20607;-64
2021/08/25 01:55:17;;;;;;;5.22;3.53;;;;;;;11.54;72.05;101234.16;5092533;28;20060;-64
2021/08/25 01:57:45;;;;;;;5.80;3.67;;;;;;;11.53;71.81;101234.50;5091806;28;20083;-65
2021/08/25 02:00:13;;;;;;;5.28;4.10;;;;;;;11.51;71.24;101231.16;5092235;28;20059;-65
2021/08/25 02:02:42;;;;;;;5.55;3.75;;;;;;;11.50;71.60;101229.50;5092567;28;20063;-64
2021/08/25 02:05:10;;;;;;;4.63;3.93;;;;;;;11.48;71.65;101228.97;5092828;28;20066;-64
2021/08/25 02:07:37;;;;;;;7.25;4.20;;;;;;;11.47;71.55;101238.50;5092324;28;20062;-64
2021/08/25 02:10:06;;;;;;;6.15;4.07;;;;;;;11.45;71.72;101229.59;5092780;28;20477;-65
2021/08/25 02:12:33;;;;;;;5.70;4.30;;;;;;;11.38;71.74;101232.72;5091840;28;20048;-65
2021/08/25 02:15:01;;;;;;;6.05;4.00;;;;;;;11.40;72.29;101233.25;5092144;28;20063;-65
2021/08/25 02:17:29;;;;;;;8.77;4.68;;;;;;;11.40;72.26;101218.50;5089702;28;20044;-64
2021/08/25 02:19:58;;;;;;;7.70;4.40;;;;;;;11.37;72.21;101226.31;5092710;28;20053;-65
2021/08/25 02:22:26;;;;;;;6.90;4.40;;;;;;;11.37;72.29;101217.13;5075751;28;20060;-64
2021/08/25 02:24:53;;;;;;;8.48;4.47;;;;;;;11.36;72.23;101215.50;5086543;28;20052;-64
2021/08/25 02:27:20;;;;;;;6.03;4.32;;;;;;;11.20;72.25;101217.66;5092322;28;20052;-64
2021/08/25 02:29:55;;;;;;;5.38;4.05;;;;;;;11.26;72.52;101210.88;5092265;28;20055;-64
2021/08/25 02:32:23;;;;;;;6.22;4.60;;;;;;;11.25;72.39;101203.63;5091968;28;20063;-64
2021/08/25 02:34:50;;;;;;;4.30;3.58;;;;;;;11.27;72.62;101204.16;5092986;28;20059;-64
2021/08/25 02:37:19;;;;;;;5.85;3.83;;;;;;;11.27;72.28;101206.94;5092634;28;20058;-64
2021/08/25 02:39:46;;;;;;;5.78;3.55;;;;;;;11.26;72.07;101201.69;5091960;28;20412;-64
2021/08/25 02:42:14;;;;;;;7.32;3.78;;;;;;;11.25;72.01;101200.84;5092000;28;20411;-64
2021/08/25 02:44:42;;;;;;;5.65;4.20;;;;;;;11.22;72.21;101193.09;5092642;28;20075;-64
2021/08/25 02:47:09;;;;;;;5.55;4.43;;;;;;;11.22;72.20;101190.31;5092161;28;20456;-64
2021/08/25 02:49:37;;;;;;;6.78;4.45;;;;;;;11.18;72.24;101190.06;5094636;28;20056;-64
2021/08/25 02:52:05;;;;;;;6.13;4.72;;;;;;;11.16;72.00;101191.50;5095705;28;20066;-64
2021/08/25 02:54:36;;;;;;;6.32;4.72;;;;;;;11.11;72.05;101186.00;5095290;28;20068;-64
2021/08/25 02:57:04;;;;;;;5.82;4.70;;;;;;;11.10;72.00;101189.91;5095401;28;20056;-64
2021/08/25 02:59:31;;;;;;;6.68;5.03;;;;;;;11.06;72.09;101189.69;5095316;28;20056;-64
2021/08/25 03:01:58;;;;;;;6.03;4.85;;;;;;;11.05;72.24;101181.63;5095795;28;20059;-64
2021/08/25 03:04:26;;;;;;;6.22;4.57;;;;;;;11.02;72.30;101174.69;5095559;28;20048;-64
2021/08/25 03:06:53;;;;;;;5.80;4.32;;;;;;;10.99;72.20;101188.41;5095226;28;20059;-64
2021/08/25 03:09:20;;;;;;;5.65;4.28;;;;;;;10.99;72.43;101186.44;5094907;28;20059;-63
2021/08/25 03:11:49;;;;;;;6.15;4.13;;;;;;;10.95;72.40;101182.59;5095481;28;20055;-63
2021/08/25 03:14:17;;;;;;;6.53;4.50;;;;;;;10.93;72.28;101180.09;5095667;28;20485;-63
2021/08/25 03:16:44;;;;;;;6.43;5.03;;;;;;;10.92;72.10;101178.47;5095178;28;20067;-64
2021/08/25 03:19:11;;;;;;;6.75;4.95;;;;;;;10.91;71.89;101176.78;5095041;28;20056;-64
2021/08/25 03:21:41;;;;;;;6.97;4.93;;;;;;;10.82;72.01;101170.22;5085076;28;20056;-63
2021/08/25 03:24:09;;;;;;;6.07;5.20;;;;;;;10.65;72.63;101179.09;5087837;28;20449;-64
2021/08/25 03:26:36;;;;;;;7.15;5.53;;;;;;;10.74;73.11;101173.69;5095139;28;20052;-64
2021/08/25 03:29:05;;;;;;;7.22;5.65;;;;;;;10.77;72.90;101175.84;5095001;28;20051;-64
2021/08/25 03:31:35;;;;;;;7.63;5.78;;;;;;;10.79;73.21;101173.59;5095331;28;20044;-64
2021/08/25 03:34:03;;;;;;;7.30;4.93;;;;;;;10.79;72.82;101170.81;5095204;28;20511;-64
2021/08/25 03:36:30;;;;;;;6.22;5.32;;;;;;;10.77;72.59;101164.72;5095282;28;20460;-63
2021/08/25 03:38:58;;;;;;;8.60;5.28;;;;;;;10.79;72.45;101172.78;5094393;28;20500;-63
2021/08/25 03:41:25;;;;;;;7.68;5.53;;;;;;;10.77;72.25;101173.06;5094266;28;20060;-64
2021/08/25 03:43:52;;;;;;;10.13;5.30;;;;;;;10.73;72.56;101174.78;5094483;28;20058;-64
2021/08/25 03:46:21;;;;;;;7.38;5.10;;;;;;;10.68;73.00;101169.28;5095267;28;20052;-65
2021/08/25 03:48:48;;;;;;;5.67;4.87;;;;;;;10.71;72.64;101171.50;5094760;28;20044;-64
2021/08/25 03:51:16;;;;;;;6.95;5.35;;;;;;;10.68;72.89;101161.75;5094986;28;20401;-63
2021/08/25 03:53:43;;;;;;;6.55;5.32;;;;;;;10.71;72.89;101155.59;5094501;28;20048;-64
2021/08/25 03:56:10;;;;;;;6.10;5.05;;;;;;;10.75;72.70;101150.25;5094840;28;20056;-64
2021/08/25 03:58:40;;;;;;;7.38;5.35;;;;;;;10.73;72.58;101163.66;5094793;28;20070;-63
2021/08/25 04:01:07;;;;;;;8.05;5.15;;;;;;;10.69;72.40;101162.63;5094642;28;20063;-64
2021/08/25 04:03:36;;;;;;;5.97;4.55;;;;;;;10.72;72.15;101157.25;5094103;28;20404;-64
2021/08/25 04:06:03;;;;;;;7.97;5.53;;;;;;;10.70;72.01;101153.94;5094312;28;20048;-64
2021/08/25 04:08:31;;;;;;;8.57;5.15;;;;;;;10.67;72.22;101151.75;5094278;28;20048;-64
2021/08/25 04:10:58;;;;;;;5.95;4.85;;;;;;;10.67;72.17;101153.72;5094139;28;20052;-63
2021/08/25 04:13:25;;;;;;;8.05;5.13;;;;;;;10.62;72.84;101145.41;5094173;28;20488;-64
2021/08/25 04:15:53;;;;;;;8.70;4.82;;;;;;;10.71;73.30;101155.59;5094832;28;20393;-63
2021/08/25 04:18:21;;;;;;;12.20;5.80;;;;;;;10.81;73.96;101153.81;5094032;28;20493;-64
2021/08/25 04:20:49;;;;;;;6.82;4.45;;;;;;;10.87;73.33;101144.25;5090643;28;20056;-64
2021/08/25 04:23:16;;;;;;;8.88;4.30;;;;;;;10.96;72.80;101140.50;5074721;28;20049;-64
2021/08/25 04:25:44;;;;;;;7.20;4.45;;;;;;;10.99;72.28;101141.03;5094102;28;20055;-64
2021/08/25 04:28:12;;;;;;;7.57;4.07;;;;;;;11.02;72.29;101138.44;5094110;28;20059;-64
2021/08/25 04:30:39;;;;;;;6.90;4.25;;;;;;;11.04;71.71;101138.16;5094015;28;20401;-64
2021/08/25 04:33:08;;;;;;;4.70;3.50;;;;;;;11.12;71.33;101143.03;5094220;28;20067;-64
2021/08/25 04:35:35;;;;;;;7.68;4.50;;;;;;;11.12;70.62;101137.47;5093339;28;20531;-64
2021/08/25 04:38:04;;;;;;;5.78;4.55;;;;;;;11.16;70.55;101144.09;5094019;28;20059;-63
2021/08/25 04:40:31;;;;;;;8.10;4.80;;;;;;;10.95;71.28;101147.19;5093663;28;20055;-63
2021/08/25 04:43:00;;;;;;;7.28;4.57;;;;;;;11.01;71.53;101150.75;5094001;28;20052;-63
2021/08/25 04:45:28;;;;;;;8.27;4.50;;;;;;;11.06;71.17;101149.81;5093680;28;20058;-62
2021/08/25 04:47:56;;;;;;;6.22;4.30;;;;;;;11.05;70.65;101143.44;5093352;28;20378;-62
2021/08/25 04:50:26;;;;;;;7.60;4.50;;;;;;;11.01;70.95;101141.56;5093172;28;20051;-62
2021/08/25 04:52:56;;;;;;;5.82;4.47;;;;;;;11.05;70.33;101149.00;5094028;28;20052;-62
2021/08/25 04:55:25;;;;;;;7.00;4.30;;;;;;;11.10;70.16;101148.09;5093837;28;20400;-62
2021/08/25 04:57:52;;;;;;;5.50;3.90;;;;;;;11.11;70.02;101147.81;5093295;28;20060;-63
2021/08/25 05:00:20;;;;;;;8.05;4.93;;;;;;;11.14;69.87;101147.19;5092692;28;20044;-62
2021/08/25 05:02:48;;;;;;;6.60;5.43;;;;;;;11.14;69.78;101141.59;5093899;28;20044;-63
2021/08/25 05:05:15;;;;;;;6.85;5.28;;;;;;;11.17;69.80;101145.75;5093991;28;20048;-63
2021/08/25 05:07:43;;;;;;;7.10;5.00;;;;;;;11.15;70.57;101143.28;5093372;28;20052;-63
2021/08/25 05:10:11;;;;;;;7.00;5.38;;;;;;;11.17;70.31;101138.22;5093240;28;20508;-63
2021/08/25 05:12:40;;;;;;;6.45;4.80;;;;;;;11.21;69.99;101132.03;5090350;28;20444;-63
2021/08/25 05:15:10;;;;;;;10.43;5.70;;;;;;;11.21;70.72;101135.66;5092887;28;20051;-63
2021/08/25 05:17:38;;;;;;;7.53;5.50;;;;;;;11.23;70.45;101133.38;5093807;28;20442;-63
2021/08/25 05:20:07;;;;;;;7.05;5.57;;;;;;;11.12;70.97;101132.72;5092859;28;20055;-63
2021/08/25 05:22:35;;;;;;;8.57;5.70;;;;;;;11.24;70.96;101137.03;5090244;28;20074;-64
2021/08/25 05:25:04;;;;;;;7.47;5.25;;;;;;;11.34;70.73;101134.09;5091706;28;20048;-63
2021/08/25 05:27:32;;;;;;;5.70;4.88;;;;;;;11.43;70.55;101131.44;5092199;28;20047;-63
2021/08/25 05:30:01;;;;;;;6.20;4.90;;;;;;;11.49;70.81;101127.41;5091103;28;20052;-64
2021/08/25 05:32:28;;;;;;;5.33;4.77;;;;;;;11.56;70.78;101136.22;5092263;28;20063;-64
2021/08/25 05:34:55;;;;;;;7.30;4.82;;;;;;;11.65;70.75;101117.63;5092168;28;20476;-63
2021/08/25 05:37:23;;;;;;;7.57;5.55;;;;;;;11.61;70.87;101124.94;5092759;28;20488;-63
2021/08/25 05:39:50;;;;;;;6.85;4.93;;;;;;;11.75;70.79;101133.38;5092542;28;20051;-63
2021/08/25 05:42:17;;;;;;;7.85;4.80;;;;;;;11.78;70.75;101128.03;5092452;28;20068;-64
2021/08/25 05:44:45;;;;;;;6.22;4.97;;;;;;;11.87;70.17;101135.69;5092659;28;20052;-63
2021/08/25 05:47:14;;;;;;;6.78;4.80;;;;;;;12.00;70.15;101132.13;5092992;28;20408;-63
2021/08/25 05:49:41;;;;;;;7.22;5.22;;;;;;;12.13;70.02;101125.72;5091553;28;20063;-63
2021/08/25 05:52:08;;;;;;;11.25;6.15;;;;;;;12.24;70.20;101131.94;5090355;28;20047;-63
2021/08/25 05:54:36;;;;;;;8.48;5.10;;;;;;;12.34;69.81;101128.09;5072598;28;20417;-63
2021/08/25 05:57:03;;;;;;;5.75;4.80;;;;;;;12.38;69.41;101134.72;5091852;28;20096;-62
2021/08/25 05:59:31;;;;;;;7.40;4.90;;;;;;;12.48;69.20;101130.91;5092451;28;20040;-63
2021/08/25 06:01:58;;;;;;;6.40;4.63;;;;;;;12.56;68.62;101136.59;5093216;28;20484;-63
2021/08/25 06:04:27;;;;;;;6.88;4.78;;;;;;;12.69;68.26;101132.13;5092721;28;20058;-64
2021/08/25 06:06:54;;;;;;;6.40;4.90;;;;;;;12.85;67.90;101132.63;5092989;28;20067;-63
2021/08/25 06:09:22;;;;;;;6.45;4.45;;;;;;;12.81;68.37;101126.00;5092683;28;20477;-64
2021/08/25 06:11:49;;;;;;;7.80;5.00;;;;;;;13.00;67.63;101123.06;5092867;28;20052;-64
2021/08/25 06:14:16;;;;;;;7.20;4.93;;;;;;;13.17;67.10;101126.00;5092308;28;20393;-64
2021/08/25 06:16:44;;;;;;;8.52;4.65;;;;;;;13.29;67.09;101121.84;5092459;28;20511;-64
2021/08/25 06:19:11;;;;;;;10.68;4.90;;;;;;;13.39;66.63;101116.00;5090527;28;20051;-64
2021/08/25 06:21:44;;;;;;;7.47;4.65;;;;;;;13.45;66.25;101122.31;5082472;28;20052;-64
2021/08/25 06:24:14;;;;;;;8.32;4.60;;;;;;;13.51;66.18;101118.25;5091895;28;20044;-63
2021/08/25 06:26:42;;;;;;;5.97;4.70;;;;;;;13.57;66.46;101122.56;5096932;28;20404;-63
2021/08/25 06:29:10;;;;;;;5.95;4.32;;;;;;;13.67;66.56;101122.31;5096340;28;20048;-63
2021/08/25 06:31:37;;;;;;;9.38;5.30;;;;;;;13.72;66.85;101127.75;5095956;28;20512;-45
2021/08/25 06:34:05;;;;;;;6.72;4.80;;;;;;;13.90;67.43;101130.66;5096813;28;20052;-47
2021/08/25 06:36:32;;;;;;;6.18;4.70;;;;;;;14.07;67.20;101115.91;5096602;28;20054;-47
2021/08/25 06:39:01;;;;;;;7.63;4.82;;;;;;;14.05;66.13;101119.06;5096328;28;20062;-47
2021/08/25 06:41:28;;;;;;;7.83;4.70;;;;;;;14.26;66.40;101119.31;5095669;28;20067;-47
2021/08/25 06:43:55;;;;;;;7.07;4.38;;;;;;;14.46;65.20;101111.47;5096021;28;20039;-65
2021/08/25 06:46:23;;;;;;;6.55;4.38;;;;;;;14.56;64.72;101112.03;5096324;28;20384;-65
2021/08/25 06:48:50;;;;;;;7.30;4.88;;;;;;;14.60;64.16;101107.41;5096067;28;20066;-65
2021/08/25 06:51:18;;;;;;;6.78;4.70;;;;;;;14.75;63.75;101108.94;5096047;28;20059;-65
2021/08/25 06:53:45;;;;;;;10.70;4.50;;;;;;;14.82;63.04;101103.66;5096223;28;20052;-65
2021/08/25 06:56:14;;;;;;;7.53;4.45;;;;;;;14.95;63.39;101096.25;5095440;28;20052;-65
2021/08/25 06:58:41;;;;;;;6.97;4.87;;;;;;;15.03;63.06;101103.00;5095921;28;20492;-65
2021/08/25 07:01:08;;;;;;;6.30;4.03;;;;;;;15.07;63.63;101104.00;5095428;28;20059;-65
2021/08/25 07:03:36;;;;;;;6.55;4.50;;;;;;;15.14;63.15;101098.75;5095456;28;20056;-65
2021/08/25 07:06:04;;;;;;;8.35;4.70;;;;;;;15.28;62.70;101092.94;5092315;28;20055;-66
2021/08/25 07:08:31;;;;;;;8.77;4.78;;;;;;;15.39;62.42;101085.00;5083270;28;20542;-66
2021/08/25 07:10:59;;;;;;;7.28;4.30;;;;;;;15.48;62.22;101080.22;5093459;28;20048;-66
2021/08/25 07:13:28;;;;;;;6.95;4.40;;;;;;;15.57;62.60;101085.81;5081734;28;20063;-66
2021/08/25 07:15:55;;;;;;;9.38;4.97;;;;;;;15.70;62.53;101086.78;5093669;28;20064;-66
2021/08/25 07:18:22;;;;;;;6.97;4.20;;;;;;;15.76;62.20;101086.28;5075403;28;20053;-66
2021/08/25 07:20:50;;;;;;;8.15;4.45;;;;;;;15.90;62.51;101090.91;5076219;28;20548;-67
2021/08/25 07:23:17;;;;;;;7.22;4.60;;;;;;;16.08;61.94;101083.22;5092459;28;20059;-66
2021/08/25 07:25:45;;;;;;;5.78;4.40;;;;;;;16.29;61.85;101086.91;5087867;28;20489;-66
2021/08/25 07:28:12;;;;;;;7.63;4.30;;;;;;;16.53;61.17;101088.28;5077667;28;20052;-66
2021/08/25 07:30:41;;;;;;;6.70;4.50;;;;;;;17.02;59.87;101089.44;5076140;28;20048;-66
2021/08/25 07:33:12;;;;;;;6.10;4.30;;;;;;;18.02;56.74;101088.69;5085760;28;20060;-67
2021/08/25 07:35:39;;;;;;;6.90;3.80;;;;;;;19.19;53.04;101085.19;5076375;28;20052;-67
2021/08/25 07:38:06;;;;;;;7.03;4.28;;;;;;;20.35;50.23;101078.63;5085393;28;20052;-67
2021/08/25 07:40:34;;;;;;;6.88;4.10;;;;;;;21.57;47.77;101072.06;5072251;28;20057;-67
2021/08/25 07:43:01;;;;;;;5.80;3.72;;;;;;;22.70;44.89;101075.25;5079859;28;20519;-67
2021/08/25 07:45:29;;;;;;;7.53;3.65;;;;;;;23.70;43.04;101064.34;5085418;28;20048;-67
2021/08/25 07:47:57;;;;;;;4.88;3.30;;;;;;;24.98;38.88;101067.84;5086511;28;20060;-67
2021/08/25 07:50:25;;;;;;;9.60;4.57;;;;;;;26.07;37.36;101062.13;5074032;28;20052;-67
2021/08/25 07:52:52;;;;;;;5.35;3.67;;;;;;;26.88;35.69;101065.34;5084604;28;20489;-67
2021/08/25 07:55:19;;;;;;;6.32;3.58;;;;;;;27.78;33.01;101062.88;5082830;28;20052;-67
2021/08/25 07:57:47;;;;;;;6.57;4.13;;;;;;;28.43;32.28;101051.78;5083545;28;20051;-67
2021/08/25 08:00:15;;;;;;;10.35;3.60;;;;;;;29.48;30.50;101055.13;5084920;28;20048;-67
2021/08/25 08:02:42;;;;;;;5.10;3.58;;;;;;;30.13;28.74;101049.22;5090637;28;20052;-67
2021/08/25 08:05:11;;;;;;;4.10;3.30;;;;;;;30.57;28.62;101043.53;5083821;28;20064;-65
2021/08/25 08:07:39;;;;;;;6.53;3.42;;;;;;;31.20;26.54;101041.91;5089320;28;20056;-67
2021/08/25 08:10:08;;;;;;;5.82;3.20;;;;;;;31.80;25.61;101045.53;5092182;28;20052;-67
2021/08/25 08:12:35;;;;;;;;;;;;;;;32.03;24.88;101049.53;5088428;28;20048;-67
2021/08/25 08:15:04;;;;;;;5.60;3.80;;;;;;;32.72;24.81;101032.91;5079500;28;19924;-68
2021/08/25 08:17:32;;;;;;;6.25;3.55;;;;;;;33.42;22.71;101035.44;5080492;28;20535;-65
2021/08/25 08:20:00;;;;;;;4.70;3.50;;;;;;;33.96;22.17;101035.34;5071938;28;20049;-66
2021/08/25 08:22:28;;;;;;;5.18;3.53;;;;;;;34.41;21.08;101041.31;5088649;28;20048;-66
2021/08/25 08:24:56;;;;;;;5.05;3.50;;;;;;;34.99;21.03;101037.19;5089908;28;20538;-66
2021/08/25 08:27:23;;;;;;;5.40;3.38;;;;;;;35.38;19.69;101029.88;5086408;28;20048;-66
2021/08/25 08:29:51;;;;;;;4.35;3.63;;;;;;;35.99;19.44;101030.31;5088342;28;20053;-66
2021/08/25 08:32:18;;;;;;;5.60;3.50;;;;;;;36.28;18.99;101032.84;5085308;28;20060;-66
2021/08/25 08:34:46;;;;;;;6.20;3.83;;;;;;;36.80;18.29;101035.19;5092327;28;20055;-66
2021/08/25 08:37:13;;;;;;;6.15;4.03;;;;;;;36.97;18.54;101040.16;5088560;28;20059;-66
2021/08/25 08:39:42;;;;;;;4.50;3.60;;;;;;;37.39;18.08;101035.75;5084154;28;20052;-66
2021/08/25 08:42:25;;;;;;;4.68;3.25;;;;;;;38.37;17.36;101020.94;5090904;28;20048;-66
2021/08/25 08:44:53;;;;;;;4.43;4.03;;;;;;;38.94;16.49;101028.72;5081842;28;20071;-66
2021/08/25 08:47:23;;;;;;;5.75;3.83;;;;;;;39.68;16.19;101027.94;5083822;28;20079;-66
2021/08/25 08:49:52;;;;;;;6.38;4.30;;;;;;;39.82;15.73;101021.28;5086208;28;20095;-66
2021/08/25 08:52:20;;;;;;;5.18;4.18;;;;;;;40.29;15.19;101019.34;5076191;28;20044;-66
2021/08/25 08:54:51;;;;;;;6.50;4.55;;;;;;;40.45;15.21;101008.41;5077067;28;20055;-66
2021/08/25 08:57:18;;;;;;;6.88;4.88;;;;;;;40.75;15.28;101009.03;5082580;28;20060;-66
2021/08/25 08:59:46;;;;;;;7.93;4.82;;;;;;;41.50;14.37;101004.22;5076302;28;20455;-66
2021/08/25 09:02:14;;;;;;;8.52;4.80;;;;;;;41.19;14.68;101005.00;5081193;28;20484;-66
2021/08/25 09:04:46;;;;;;;6.47;4.78;;;;;;;42.20;14.22;101002.03;5089063;28;20048;-66
2021/08/25 09:07:26;;;;;;;9.73;5.57;;;;;;;42.47;14.01;100996.88;5092811;28;20051;-66
2021/08/25 09:09:58;;;;;;;9.10;6.28;;;;;;;43.13;13.31;100989.53;5093727;28;20067;-66
2021/08/25 09:12:28;;;;;;;7.00;5.60;;;;;;;43.80;12.87;100990.88;5092546;28;20047;-66
2021/08/25 09:14:55;;;;;;;9.20;5.82;;;;;;;43.76;13.04;100993.28;5094083;28;20480;-66
2021/08/25 09:17:29;;;;;;;10.23;5.80;;;;;;;43.96;12.58;100987.13;5093461;28;20052;-66
2021/08/25 09:20:11;;;;;;;8.77;5.35;;;;;;;44.63;12.21;100984.50;5093602;28;20052;-66
2021/08/25 09:22:38;;;;;;;8.68;5.03;;;;;;;45.08;11.96;100982.03;5092194;28;20072;-66
2021/08/25 09:25:08;;;;;;;7.07;4.80;;;;;;;44.81;11.66;100985.97;5092495;28;20067;-66
2021/08/25 09:27:38;;;;;;;6.35;4.70;;;;;;;43.33;13.01;100979.72;5093378;28;20055;-66
2021/08/25 09:30:06;;;;;;;6.72;4.40;;;;;;;42.25;14.04;100977.81;5093546;28;20059;-66
2021/08/25 09:32:34;;;;;;;7.60;5.03;;;;;;;40.78;15.12;100982.53;5092306;28;20453;-66
2021/08/25 09:35:03;;;;;;;6.18;4.53;;;;;;;41.11;15.31;100978.31;5093394;28;20059;-66
2021/08/25 09:37:33;;;;;;;7.10;5.32;;;;;;;41.73;14.09;100986.84;5092922;28;20047;-65
2021/08/25 09:40:04;;;;;;;7.30;4.72;;;;;;;40.93;14.46;100976.56;5093447;28;20052;-65
2021/08/25 09:42:43;;;;;;;9.23;5.35;;;;;;;40.69;15.42;100979.72;5092080;28;20052;-66
2021/08/25 09:45:14;;;;;;;7.72;5.00;;;;;;;40.70;14.67;100972.59;5093263;28;20044;-66
2021/08/25 09:47:48;;;;;;;7.03;4.32;;;;;;;39.47;15.53;100981.22;5092131;28;20497;-66
2021/08/25 09:50:17;;;;;;;6.70;4.13;;;;;;;38.87;16.08;100967.94;5093014;28;20048;-66
2021/08/25 09:52:44;;;;;;;;;;;;;;;38.25;16.02;100958.78;5093716;28;20048;-66
2021/08/25 09:55:13;;;;;;;6.22;4.20;;;;;;;37.92;16.96;100961.72;5093572;28;19943;-66
2021/08/25 09:57:43;;;;;;;7.70;4.20;;;;;;;37.69;16.70;100960.41;5091387;28;20055;-66
2021/08/25 10:00:13;;;;;;;6.05;4.35;;;;;;;38.51;16.49;100955.34;5097008;28;20044;-66
2021/08/25 10:02:41;;;;;;;5.47;4.05;;;;;;;39.82;14.62;100945.44;5096534;28;20473;-66
2021/08/25 10:05:10;;;;;;;8.48;4.57;;;;;;;41.58;13.62;100952.72;5093416;28;20047;-66
2021/08/25 10:07:39;;;;;;;6.97;3.95;;;;;;;42.63;12.59;100940.47;5085018;28;20056;-66
2021/08/25 10:10:07;;;;;;;5.70;4.15;;;;;;;43.56;11.72;100941.56;5078421;28;20393;-66
2021/08/25 10:12:35;;;;;;;4.40;3.80;;;;;;;44.78;10.69;100943.75;5097106;28;20472;-66
2021/08/25 10:15:45;;;;;;;5.40;4.45;;;;;;;45.63;11.16;100946.81;5096040;28;20477;-66
2021/08/25 10:18:29;;;;;;;5.60;4.60;;;;;;;45.34;10.84;100946.28;5075941;28;20405;-66
2021/08/25 10:20:58;;;;;;;5.25;4.50;;;;;;;45.88;9.94;100935.03;5087908;28;20055;-66
2021/08/25 10:24:02;;;;;;;5.60;3.70;;;;;;;44.87;10.54;100930.91;5088869;28;20059;-66
2021/08/25 10:26:29;;;;;;;4.95;4.30;;;;;;;45.07;10.22;100929.66;5085841;28;20051;-66
2021/08/25 10:29:07;;;;;;;5.13;4.15;;;;;;;45.30;10.30;100931.09;5089225;28;20052;-66
2021/08/25 10:32:14;;;;;;;4.85;4.07;;;;;;;44.29;10.50;100935.50;5084025;28;20067;-66
2021/08/25 10:34:43;;;;;;;5.63;4.55;;;;;;;44.86;10.36;100933.03;5085074;28;20040;-66
2021/08/25 10:37:34;;;;;;;5.25;3.92;;;;;;;45.75;9.62;100926.88;5082844;28;20044;-65
2021/08/25 10:40:03;;;;;;;5.28;4.05;;;;;;;46.03;9.25;100916.94;5062998;28;20061;-65
2021/08/25 10:42:52;;;;;;;4.78;4.28;;;;;;;46.47;9.35;100917.69;5086233;28;20051;-65
2021/08/25 10:46:01;;;;;;;6.55;3.72;;;;;;;46.78;8.36;100898.47;5088493;28;20060;-65
2021/08/25 10:48:45;;;;;;;4.28;3.88;;;;;;;46.88;8.48;100901.81;5086863;28;20546;-65
2021/08/25 10:51:30;;;;;;;5.47;4.00;;;;;;;47.01;9.63;100890.03;5092825;28;20044;-66
2021/08/25 10:54:15;;;;;;;5.32;4.20;;;;;;;47.11;9.08;100897.09;5095610;28;20055;-66
2021/08/25 10:56:45;;;;;;;6.53;4.22;;;;;;;47.22;8.37;100895.34;5088922;28;20056;-66
2021/08/25 10:59:14;;;;;;;5.22;4.00;;;;;;;47.03;8.23;100878.47;5089098;28;20055;-66
2021/08/25 11:04:36;;;;;;;4.82;3.90;;;;;;;47.06;8.59;100871.44;5063819;28;20519;-66
2021/08/25 11:07:06;;;;;;;5.93;4.18;;;;;;;47.37;8.38;100860.94;5095346;28;20059;-66
2021/08/25 11:09:35;;;;;;;6.13;4.40;;;;;;;47.55;8.70;100853.38;5095250;28;20485;-66
2021/08/25 11:12:13;;;;;;;5.05;3.78;;;;;;;47.85;8.52;100857.31;5092786;28;20062;-66
2021/08/25 11:14:44;;;;;;;4.57;4.18;;;;;;;47.69;8.58;100853.34;5088171;28;20052;-66
2021/08/25 11:17:17;;;;;;;5.75;4.50;;;;;;;48.00;8.49;100850.84;5092571;28;20052;-66
2021/08/25 11:19:47;;;;;;;5.28;3.92;;;;;;;47.76;8.65;100849.72;5089326;28;20062;-66
2021/08/25 11:22:18;;;;;;;5.30;4.18;;;;;;;47.07;8.63;100840.59;5091524;28;20074;-66
2021/08/25 11:24:47;;;;;;;5.60;4.55;;;;;;;47.43;8.64;100845.28;5096027;28;20052;-66
2021/08/25 11:27:25;;;;;;;5.43;4.55;;;;;;;47.01;8.57;100834.00;5095165;28;20052;-66
2021/08/25 11:30:21;;;;;;;5.10;4.40;;;;;;;47.01;8.27;100834.00;5095939;28;20495;-66
2021/08/25 11:32:51;;;;;;;4.40;4.00;;;;;;;47.21;8.72;100834.72;5075182;28;20056;-66
2021/08/25 11:35:25;;;;;;;7.65;4.60;;;;;;;47.04;8.48;100832.84;5077555;28;20744;-66
2021/08/25 11:37:54;;;;;;;4.75;4.22;;;;;;;47.33;8.72;100813.28;5094723;28;20055;-66
2021/08/25 11:40:24;;;;;;;5.13;4.32;;;;;;;46.54;9.73;100814.69;5094089;28;20400;-66